Time;durP1;ratioP1;P1;durP2;ratioP2;P2;SDS_P1;SDS_P2;PMS_P1;PMS_P2;Temp;Humidity;BMP_temperature;BMP_pressure;BME280_temperature;BME280_humidity;BME280_pressure;Samples;Min_cycle;Max_cycle;Signal;HPM_P1;HPM_P2
2022/04/08 00:01:25;;;;;;;10.20;1.67;;;7.20;90.00;;;;;;5000929;28;20110;-87
2022/04/08 00:03:53;;;;;;;10.00;2.30;;;7.10;90.30;;;;;;5001706;28;20031;-87
2022/04/08 00:06:23;;;;;;;7.15;1.30;;;7.10;90.80;;;;;;5003027;28;20062;-88
2022/04/08 00:08:50;;;;;;;6.25;1.38;;;7.10;91.10;;;;;;5020057;28;20049;-86
2022/04/08 00:11:18;;;;;;;9.23;1.45;;;7.00;91.30;;;;;;5001633;28;20034;-88
2022/04/08 00:13:43;;;;;;;5.43;1.55;;;7.00;91.40;;;;;;4988601;28;20030;-88
2022/04/08 00:16:09;;;;;;;15.93;1.83;;;7.00;91.10;;;;;;5001163;28;20030;-87
2022/04/08 00:18:37;;;;;;;5.20;1.20;;;7.00;91.20;;;;;;5020557;28;20100;-88
2022/04/08 00:21:04;;;;;;;4.88;1.10;;;7.00;90.80;;;;;;5010643;28;20068;-88
2022/04/08 00:23:33;;;;;;;8.18;1.27;;;7.00;90.60;;;;;;5003261;28;20030;-88
2022/04/08 00:25:59;;;;;;;11.07;1.60;;;7.00;90.30;;;;;;5018428;28;20090;-87
2022/04/08 00:28:25;;;;;;;8.98;1.48;;;7.00;90.30;;;;;;5002587;28;20057;-88
2022/04/08 00:30:50;;;;;;;5.80;1.88;;;7.10;89.30;;;;;;5002723;28;20026;-89
2022/04/08 00:33:18;;;;;;;4.38;1.58;;;7.10;88.80;;;;;;5002355;28;20026;-87
2022/04/08 00:35:44;;;;;;;8.15;1.20;;;7.10;89.00;;;;;;5019589;28;20514;-87
2022/04/08 00:38:19;;;;;;;10.20;1.92;;;7.10;88.70;;;;;;5020152;28;20029;-87
2022/04/08 00:40:52;;;;;;;7.55;1.70;;;7.10;89.30;;;;;;5019532;28;20034;-87
2022/04/08 00:44:02;;;;;;;7.68;1.60;;;7.10;89.20;;;;;;5017904;28;20018;-88
2022/04/08 00:46:29;;;;;;;;;;;7.00;89.00;;;;;;5007147;28;20034;-87
2022/04/08 00:49:01;;;;;;;8.82;1.83;;;7.00;89.60;;;;;;4997787;28;19909;-87
2022/04/08 00:51:27;;;;;;;9.85;2.20;;;7.00;90.30;;;;;;5015335;28;20085;-86
2022/04/08 00:53:53;;;;;;;4.40;1.52;;;7.00;90.10;;;;;;4998466;28;20057;-85
2022/04/08 00:56:21;;;;;;;10.50;1.63;;;6.90;90.10;;;;;;5016327;28;20415;-86
2022/04/08 00:58:47;;;;;;;8.80;1.70;;;6.90;90.70;;;;;;4998159;28;20484;-88
2022/04/08 01:01:13;;;;;;;13.23;1.58;;;6.90;91.20;;;;;;5015122;28;20064;-85
2022/04/08 01:03:39;;;;;;;12.27;2.25;;;6.90;91.70;;;;;;5015023;28;20064;-87
2022/04/08 01:06:04;;;;;;;14.25;2.58;;;6.80;91.60;;;;;;4998069;28;20026;-87
2022/04/08 01:08:32;;;;;;;9.25;1.85;;;6.80;92.20;;;;;;4997508;28;20037;-86
2022/04/08 01:11:01;;;;;;;13.32;1.30;;;6.80;92.70;;;;;;5014360;28;20018;-87
2022/04/08 01:13:27;;;;;;;11.55;1.45;;;6.70;93.00;;;;;;5014942;28;20018;-86
2022/04/08 01:15:53;;;;;;;6.90;1.90;;;6.70;93.40;;;;;;4997298;28;20037;-87
2022/04/08 01:18:19;;;;;;;13.00;1.65;;;6.70;94.00;;;;;;4997156;28;20033;-86
2022/04/08 01:20:47;;;;;;;13.25;2.00;;;6.70;93.90;;;;;;4997304;28;20060;-86
2022/04/08 01:23:17;;;;;;;9.18;1.90;;;6.70;94.20;;;;;;4996949;28;20060;-86
2022/04/08 01:25:42;;;;;;;14.32;2.03;;;6.70;94.40;;;;;;4997190;28;20037;-86
2022/04/08 01:28:08;;;;;;;9.73;1.60;;;6.60;94.40;;;;;;4997024;28;20030;-89
2022/04/08 01:30:34;;;;;;;12.07;1.83;;;6.60;94.00;;;;;;4996050;28;20030;-87
2022/04/08 01:32:59;;;;;;;7.30;1.42;;;6.60;94.20;;;;;;5014534;28;20026;-87
2022/04/08 01:35:25;;;;;;;10.35;2.42;;;6.60;94.50;;;;;;4996680;28;20038;-87
2022/04/08 01:37:51;;;;;;;8.57;2.20;;;6.60;94.80;;;;;;4996645;28;20545;-87
2022/04/08 01:40:17;;;;;;;13.65;2.15;;;6.50;94.70;;;;;;4996521;28;20036;-88
2022/04/08 01:42:42;;;;;;;8.95;2.03;;;6.50;95.00;;;;;;5013823;28;20049;-87
2022/04/08 01:45:09;;;;;;;8.75;2.20;;;6.50;95.10;;;;;;4996844;28;20112;-87
2022/04/08 01:47:35;;;;;;;6.22;1.20;;;6.50;95.80;;;;;;5014311;28;20080;-87
2022/04/08 01:50:01;;;;;;;6.28;1.63;;;6.50;96.00;;;;;;4995690;28;20033;-89
2022/04/08 01:52:26;;;;;;;16.63;2.47;;;6.50;96.80;;;;;;4996722;28;20465;-87
2022/04/08 01:54:55;;;;;;;7.03;1.60;;;6.40;97.10;;;;;;5014478;28;20087;-86
2022/04/08 01:57:23;;;;;;;5.88;1.83;;;6.40;97.80;;;;;;4996241;28;20041;-87
2022/04/08 01:59:50;;;;;;;11.52;2.53;;;6.40;98.60;;;;;;4996336;28;20025;-87
2022/04/08 02:02:17;;;;;;;5.65;1.63;;;6.30;99.40;;;;;;5013553;28;20033;-86
2022/04/08 02:04:42;;;;;;;7.25;2.35;;;6.20;99.90;;;;;;4997297;28;20026;-87
2022/04/08 02:07:14;;;;;;;6.03;2.22;;;6.20;99.90;;;;;;4997095;28;20083;-88
2022/04/08 02:09:46;;;;;;;6.35;1.83;;;6.20;99.90;;;;;;5014518;28;20030;-87
2022/04/08 02:12:22;;;;;;;10.55;2.05;;;6.10;99.90;;;;;;5014741;28;20021;-87
2022/04/08 02:14:51;;;;;;;9.43;1.85;;;6.10;99.90;;;;;;5015508;28;20041;-86
2022/04/08 02:17:18;;;;;;;12.07;1.85;;;6.10;99.90;;;;;;4997741;28;20025;-86
2022/04/08 02:19:47;;;;;;;8.00;2.00;;;6.10;99.90;;;;;;4996735;28;20030;-88
2022/04/08 02:22:12;;;;;;;11.93;1.98;;;6.00;99.90;;;;;;5014607;28;20144;-86
2022/04/08 02:24:43;;;;;;;6.72;1.23;;;6.00;99.90;;;;;;5013668;22;20029;-87
2022/04/08 02:27:09;;;;;;;12.27;1.85;;;6.00;99.90;;;;;;5027134;28;20049;-90
2022/04/08 02:29:37;;;;;;;11.10;2.78;;;6.00;99.90;;;;;;5034001;28;20448;-89
2022/04/08 02:32:04;;;;;;;12.95;2.42;;;6.00;99.90;;;;;;5033132;28;20029;-88
2022/04/08 02:34:36;;;;;;;8.98;1.90;;;6.00;99.90;;;;;;5015887;28;20026;-88
2022/04/08 02:37:06;;;;;;;14.35;1.67;;;5.90;99.90;;;;;;5033289;28;20057;-87
2022/04/08 02:39:32;;;;;;;13.30;1.98;;;5.90;99.90;;;;;;5022300;28;20025;-88
2022/04/08 02:41:58;;;;;;;12.82;1.80;;;5.80;99.90;;;;;;5031100;28;20059;-88
2022/04/08 02:44:24;;;;;;;8.80;1.70;;;5.80;99.90;;;;;;5029280;28;20029;-90
2022/04/08 02:46:50;;;;;;;11.85;2.30;;;5.90;99.90;;;;;;5064250;28;20036;-90
2022/04/08 02:49:16;;;;;;;16.90;2.90;;;5.80;99.90;;;;;;5038426;28;20519;-91
2022/04/08 02:51:53;;;;;;;13.00;2.25;;;5.80;99.90;;;;;;5036394;28;20026;-90
2022/04/08 02:54:22;;;;;;;6.63;1.40;;;5.80;99.90;;;;;;5015282;28;20034;-90
2022/04/08 02:56:51;;;;;;;13.75;1.85;;;5.70;99.90;;;;;;5033568;28;20030;-89
2022/04/08 02:59:16;;;;;;;10.02;2.20;;;5.70;99.90;;;;;;5015570;28;20044;-90
2022/04/08 03:01:45;;;;;;;14.93;2.40;;;5.70;99.90;;;;;;5015207;28;20021;-90
2022/04/08 03:04:11;;;;;;;9.10;1.65;;;5.60;99.90;;;;;;5015389;28;20397;-90
2022/04/08 03:06:37;;;;;;;4.07;1.83;;;5.70;99.90;;;;;;5015331;28;20025;-90
2022/04/08 03:09:06;;;;;;;10.27;1.90;;;5.60;99.90;;;;;;5033900;28;20060;-89
2022/04/08 03:11:33;;;;;;;12.18;1.88;;;5.60;99.90;;;;;;5015468;28;20497;-90
2022/04/08 03:14:00;;;;;;;8.70;2.13;;;5.60;99.90;;;;;;5036517;28;20032;-90
2022/04/08 03:16:26;;;;;;;10.45;2.25;;;5.50;99.90;;;;;;5036674;28;20048;-91
2022/04/08 03:18:52;;;;;;;15.80;2.33;;;5.50;99.90;;;;;;5051955;28;20021;-90
2022/04/08 03:21:27;;;;;;;9.00;2.10;;;5.50;99.90;;;;;;5004529;28;20041;-90
2022/04/08 03:23:53;;;;;;;7.75;2.05;;;5.50;99.90;;;;;;4999116;28;20034;-90
2022/04/08 03:26:19;;;;;;;8.25;1.80;;;5.50;99.90;;;;;;4998436;28;20076;-90
2022/04/08 03:28:44;;;;;;;9.15;2.10;;;5.50;99.90;;;;;;5008127;28;20119;-90
2022/04/08 03:31:13;;;;;;;12.20;1.75;;;5.50;99.90;;;;;;5018810;28;20076;-90
2022/04/08 03:33:41;;;;;;;11.63;2.17;;;5.50;99.90;;;;;;5018469;28;20387;-92
2022/04/08 03:36:07;;;;;;;14.07;2.95;;;5.50;99.90;;;;;;5035814;28;20026;-91
2022/04/08 03:38:34;;;;;;;7.10;2.22;;;5.50;99.90;;;;;;5036032;28;20105;-91
2022/04/08 03:41:02;;;;;;;4.78;1.75;;;5.50;99.90;;;;;;5035484;28;20480;-90
2022/04/08 03:43:28;;;;;;;10.68;2.08;;;5.40;99.90;;;;;;5036152;28;20025;-90
2022/04/08 03:45:54;;;;;;;12.63;2.80;;;5.40;99.90;;;;;;5017987;28;20444;-91
2022/04/08 03:48:20;;;;;;;8.15;1.35;;;5.40;99.90;;;;;;5017670;28;20092;-91
2022/04/08 03:50:54;;;;;;;8.82;1.70;;;5.40;99.90;;;;;;5034835;28;20044;-91
2022/04/08 03:53:20;;;;;;;9.10;2.08;;;5.40;99.90;;;;;;5017898;28;20028;-90
2022/04/08 03:55:47;;;;;;;7.50;1.58;;;5.40;99.90;;;;;;5035268;28;20025;-90
2022/04/08 03:58:13;;;;;;;9.20;1.98;;;5.40;99.90;;;;;;5017701;28;20037;-91
2022/04/08 04:00:39;;;;;;;11.45;2.13;;;5.40;99.90;;;;;;5017510;28;20029;-91
2022/04/08 04:03:05;;;;;;;11.13;2.08;;;5.30;99.90;;;;;;5018019;28;20022;-90
2022/04/08 04:05:34;;;;;;;8.88;1.95;;;5.30;99.90;;;;;;5035270;28;20030;-89
2022/04/08 04:08:03;;;;;;;5.22;1.63;;;5.30;99.90;;;;;;5018064;28;20125;-90
2022/04/08 04:10:29;;;;;;;11.95;2.05;;;5.30;99.90;;;;;;5035172;28;20013;-90
2022/04/08 04:12:54;;;;;;;10.25;1.75;;;5.30;99.90;;;;;;5017419;28;20022;-90
2022/04/08 04:15:20;;;;;;;8.63;1.75;;;5.30;99.90;;;;;;5035571;28;20025;-91
2022/04/08 04:17:46;;;;;;;13.48;2.22;;;5.30;99.90;;;;;;5029080;28;20035;-91
2022/04/08 04:20:12;;;;;;;12.02;2.05;;;5.30;99.90;;;;;;5049610;28;20033;-89
2022/04/08 04:22:38;;;;;;;11.50;1.27;;;5.30;99.90;;;;;;5017391;28;20116;-91
2022/04/08 04:25:05;;;;;;;15.55;2.35;;;5.30;99.90;;;;;;5015935;28;20120;-89
2022/04/08 04:27:31;;;;;;;10.38;2.10;;;5.30;99.90;;;;;;5034913;28;20033;-90
2022/04/08 04:29:56;;;;;;;10.65;2.13;;;5.30;99.90;;;;;;5034958;28;20492;-90
2022/04/08 04:32:22;;;;;;;11.82;1.67;;;5.30;99.90;;;;;;5034786;28;20056;-90
2022/04/08 04:34:48;;;;;;;4.75;1.58;;;5.40;99.90;;;;;;5034561;28;20370;-91
2022/04/08 04:37:14;;;;;;;14.57;2.47;;;5.30;99.90;;;;;;5017191;28;20061;-90
2022/04/08 04:39:40;;;;;;;12.80;1.98;;;5.30;99.90;;;;;;5034920;28;20063;-90
2022/04/08 04:42:07;;;;;;;7.55;1.92;;;5.30;99.90;;;;;;5035005;28;20053;-91
2022/04/08 04:44:33;;;;;;;5.10;1.70;;;5.30;99.90;;;;;;5017244;28;20097;-91
2022/04/08 04:46:58;;;;;;;11.32;1.60;;;5.40;99.90;;;;;;5018691;28;20167;-87
2022/04/08 04:49:24;;;;;;;10.38;1.88;;;5.40;99.90;;;;;;5020134;28;20124;-88
2022/04/08 04:51:51;;;;;;;10.85;1.95;;;5.40;99.90;;;;;;5023842;28;20026;-89
2022/04/08 04:54:17;;;;;;;12.80;2.08;;;5.40;99.90;;;;;;5021079;28;20022;-89
2022/04/08 04:56:43;;;;;;;7.85;2.38;;;5.40;99.90;;;;;;5038511;28;20104;-89
2022/04/08 04:59:10;;;;;;;4.90;1.42;;;5.50;99.90;;;;;;5037334;28;20036;-90
2022/04/08 05:01:36;;;;;;;9.50;2.47;;;5.50;99.90;;;;;;5020358;28;20120;-89
2022/04/08 05:04:02;;;;;;;6.65;1.63;;;5.50;99.90;;;;;;5040167;28;20041;-89
2022/04/08 05:06:28;;;;;;;10.32;2.65;;;5.50;99.90;;;;;;5038187;28;20035;-89
2022/04/08 05:08:53;;;;;;;5.40;1.58;;;5.50;99.90;;;;;;5020463;28;20196;-91
2022/04/08 05:11:19;;;;;;;4.60;1.35;;;5.50;99.90;;;;;;5036682;28;20457;-89
2022/04/08 05:13:45;;;;;;;15.63;2.47;;;5.50;99.90;;;;;;5036742;28;20036;-89
2022/04/08 05:16:11;;;;;;;7.70;1.90;;;5.60;99.90;;;;;;5017965;28;20104;-89
2022/04/08 05:18:37;;;;;;;7.65;1.83;;;5.60;99.90;;;;;;5035101;28;20029;-88
2022/04/08 05:21:03;;;;;;;10.45;1.90;;;5.60;99.90;;;;;;5033846;28;20381;-89
2022/04/08 05:23:29;;;;;;;10.27;1.95;;;5.60;99.90;;;;;;5016929;28;20032;-89
2022/04/08 05:25:58;;;;;;;4.72;1.92;;;5.70;99.90;;;;;;5016554;28;20033;-90
2022/04/08 05:28:25;;;;;;;12.07;1.83;;;5.60;99.90;;;;;;5016120;28;20026;-90
2022/04/08 05:30:51;;;;;;;10.60;2.00;;;5.70;99.90;;;;;;5034266;28;20362;-90
2022/04/08 05:33:17;;;;;;;12.38;2.05;;;5.70;99.90;;;;;;5019421;28;20029;-91
2022/04/08 05:35:43;;;;;;;6.57;1.58;;;5.70;99.90;;;;;;4996165;28;20401;-90
2022/04/08 05:38:14;;;;;;;13.10;2.05;;;5.80;99.90;;;;;;4997503;28;20114;-90
2022/04/08 05:40:41;;;;;;;12.38;1.92;;;5.80;99.90;;;;;;5006530;28;20025;-89
2022/04/08 05:43:08;;;;;;;4.85;1.35;;;5.80;99.90;;;;;;5016597;28;20346;-91
2022/04/08 05:45:34;;;;;;;17.63;2.15;;;5.80;99.90;;;;;;5017144;28;20041;-89
2022/04/08 05:48:04;;;;;;;11.00;1.80;;;5.80;99.90;;;;;;5035436;28;20409;-88
2022/04/08 05:50:30;;;;;;;10.15;2.05;;;5.80;99.90;;;;;;5016887;28;20053;-89
2022/04/08 05:52:57;;;;;;;9.10;2.50;;;5.80;99.90;;;;;;5016835;28;20033;-89
2022/04/08 05:55:23;;;;;;;14.88;2.58;;;5.80;99.90;;;;;;5015920;28;20021;-90
2022/04/08 06:01:23;;;;;;;5.30;1.38;;;5.90;99.90;;;;;;5040356;22;20041;-89
2022/04/08 06:04:21;;;;;;;;;;;;;;;;;;;;;
2022/04/08 06:07:31;;;;;;;14.02;1.80;;;6.00;99.90;;;;;;4956769;28;20034;-88
2022/04/08 06:13:26;;;;;;;7.90;1.65;;;6.00;99.90;;;;;;4952596;29;20038;-89
2022/04/08 06:18:55;;;;;;;14.30;2.05;;;6.10;99.90;;;;;;4925822;28;20031;-90
2022/04/08 06:21:33;;;;;;;6.43;1.80;;;6.10;99.90;;;;;;4949435;29;20027;-89
2022/04/08 06:27:10;;;;;;;14.65;2.30;;;6.10;99.90;;;;;;4954085;28;20031;-89
2022/04/08 06:29:36;;;;;;;14.35;1.80;;;6.10;99.90;;;;;;4961158;28;20463;-89
2022/04/08 06:32:02;;;;;;;8.40;2.03;;;6.10;99.90;;;;;;4995633;28;20073;-91
2022/04/08 06:34:36;;;;;;;6.72;2.28;;;6.20;99.90;;;;;;5013435;28;20056;-89
2022/04/08 06:37:05;;;;;;;10.27;1.50;;;6.30;99.90;;;;;;4994822;28;20030;-87
2022/04/08 06:39:53;;;;;;;15.88;2.67;;;6.30;99.90;;;;;;4994712;28;20397;-89
2022/04/08 06:42:19;;;;;;;10.70;2.05;;;6.40;99.90;;;;;;4994783;28;20034;-88
2022/04/08 06:44:45;;;;;;;5.80;1.45;;;6.40;99.90;;;;;;4995377;28;20121;-87
2022/04/08 06:47:13;;;;;;;12.60;2.03;;;6.40;99.90;;;;;;5014812;28;20042;-87
2022/04/08 06:49:44;;;;;;;8.80;1.95;;;6.40;99.90;;;;;;4998982;28;20056;-88
2022/04/08 06:52:19;;;;;;;;;;;6.40;99.90;;;;;;5000349;28;20029;-90
2022/04/08 06:54:52;;;;;;;8.38;2.13;;;6.40;99.90;;;;;;4999301;28;19932;-90
2022/04/08 06:57:24;;;;;;;10.38;1.83;;;6.50;99.90;;;;;;4999749;28;20051;-89
2022/04/08 07:03:11;;;;;;;;;;;6.50;99.90;;;;;;5017888;28;20041;-87
2022/04/08 07:05:44;;;;;;;8.00;1.70;;;6.50;99.90;;;;;;5015704;28;19913;-85
2022/04/08 07:08:10;;;;;;;10.73;1.80;;;6.50;99.90;;;;;;4996814;28;20065;-86
2022/04/08 07:13:58;;;;;;;5.55;1.98;;;6.50;99.90;;;;;;5016231;28;20546;-87
2022/04/08 07:16:36;;;;;;;10.43;2.42;;;6.60;99.90;;;;;;5016563;28;20394;-85
2022/04/08 07:19:05;;;;;;;8.27;2.20;;;6.60;99.90;;;;;;4998920;28;20030;-85
2022/04/08 07:21:36;;;;;;;11.38;2.08;;;6.60;99.90;;;;;;4994860;28;20410;-86
2022/04/08 07:24:23;;;;;;;13.10;2.25;;;6.50;99.90;;;;;;5016114;28;20026;-87
2022/04/08 07:26:50;;;;;;;6.20;1.95;;;6.50;99.90;;;;;;5016300;28;20030;-85
2022/04/08 07:29:16;;;;;;;2.90;1.35;;;6.40;99.90;;;;;;4998238;28;20095;-87
2022/04/08 07:31:44;;;;;;;7.63;1.83;;;6.30;99.90;;;;;;4998847;28;20425;-86
2022/04/08 07:34:12;;;;;;;12.32;2.00;;;6.30;99.90;;;;;;4999216;28;20026;-86
2022/04/08 07:36:38;;;;;;;16.63;2.38;;;6.30;99.90;;;;;;4997999;28;20053;-86
2022/04/08 07:39:07;;;;;;;9.13;1.95;;;6.20;99.90;;;;;;5014775;28;20486;-86
2022/04/08 07:41:43;;;;;;;8.55;1.90;;;6.10;99.90;;;;;;5016049;28;20434;-87
2022/04/08 07:44:09;;;;;;;4.40;1.75;;;6.00;99.90;;;;;;4999844;28;20057;-85
2022/04/08 07:46:40;;;;;;;9.77;2.17;;;6.00;99.90;;;;;;4998765;28;20068;-86
2022/04/08 07:49:06;;;;;;;8.05;1.88;;;6.00;99.90;;;;;;5008477;28;20084;-87
2022/04/08 07:51:32;;;;;;;10.75;1.77;;;6.00;99.90;;;;;;4998486;28;20034;-86
2022/04/08 07:53:57;;;;;;;15.98;2.10;;;6.00;99.90;;;;;;4998176;28;20049;-87
2022/04/08 07:56:29;;;;;;;12.63;2.13;;;6.00;99.90;;;;;;5015684;28;20486;-87
2022/04/08 07:59:03;;;;;;;12.00;2.15;;;5.90;99.90;;;;;;5000440;28;20537;-87
2022/04/08 08:01:29;;;;;;;9.98;2.00;;;5.90;99.90;;;;;;5000473;28;20030;-88
2022/04/08 08:03:55;;;;;;;9.93;1.90;;;6.00;99.90;;;;;;5002457;28;20072;-85
2022/04/08 08:06:26;;;;;;;9.10;1.73;;;5.90;99.90;;;;;;5020556;28;20437;-84
2022/04/08 08:08:59;;;;;;;;;;;5.90;99.90;;;;;;5002485;28;20068;-87
2022/04/08 08:11:38;;;;;;;8.25;1.65;;;5.90;99.90;;;;;;5019334;28;19968;-85
2022/04/08 08:14:24;;;;;;;6.32;2.08;;;5.90;99.90;;;;;;5000993;28;20026;-83
2022/04/08 08:16:50;;;;;;;4.28;1.48;;;5.90;99.90;;;;;;4996861;28;20030;-85
2022/04/08 08:19:15;;;;;;;4.63;1.45;;;5.90;99.90;;;;;;5014808;28;20046;-87
2022/04/08 08:21:41;;;;;;;3.33;1.50;;;5.90;99.90;;;;;;5014474;28;20040;-86
2022/04/08 08:24:07;;;;;;;8.75;1.80;;;5.90;99.90;;;;;;4997653;28;20029;-87
2022/04/08 08:26:33;;;;;;;4.13;1.48;;;5.80;99.90;;;;;;5062706;22;20046;-88
2022/04/08 08:29:02;;;;;;;4.68;1.60;;;5.80;99.90;;;;;;5035603;28;20029;-88
2022/04/08 08:31:28;;;;;;;4.35;1.70;;;5.80;99.90;;;;;;5035352;28;20022;-88
2022/04/08 08:33:56;;;;;;;4.50;1.40;;;5.80;99.90;;;;;;5035249;28;20490;-89
2022/04/08 08:36:22;;;;;;;10.48;1.85;;;5.80;99.90;;;;;;5017798;28;20022;-87
2022/04/08 08:38:53;;;;;;;9.75;1.70;;;5.80;99.90;;;;;;5014053;28;20037;-87
2022/04/08 08:41:20;;;;;;;5.93;1.73;;;5.80;99.90;;;;;;5017177;28;20043;-87
2022/04/08 08:43:47;;;;;;;6.70;1.77;;;5.70;99.90;;;;;;5035245;28;20041;-87
2022/04/08 08:46:17;;;;;;;5.68;1.70;;;5.70;99.90;;;;;;5035808;28;20044;-88
2022/04/08 08:48:50;;;;;;;3.80;1.80;;;5.70;99.90;;;;;;5018357;28;20033;-89
2022/04/08 08:51:25;;;;;;;7.97;1.70;;;5.60;99.90;;;;;;5034647;28;20033;-88
2022/04/08 08:53:59;;;;;;;6.03;2.55;;;5.50;99.90;;;;;;5035278;28;20053;-89
2022/04/08 08:56:46;;;;;;;5.93;1.60;;;5.50;99.90;;;;;;5021875;28;20030;-89
2022/04/08 09:02:22;;;;;;;6.40;1.63;;;5.50;99.90;;;;;;4954588;29;20063;-89
2022/04/08 09:05:26;;;;;;;7.05;1.50;;;5.50;99.90;;;;;;5009482;28;20037;-88
2022/04/08 09:08:02;;;;;;;4.20;1.33;;;5.50;99.90;;;;;;5035575;28;20052;-89
2022/04/08 09:13:28;;;;;;;2.92;1.27;;;5.50;99.90;;;;;;5035289;28;20064;-87
2022/04/08 09:16:00;;;;;;;3.63;1.27;;;5.50;99.90;;;;;;5017116;28;20496;-88
2022/04/08 09:18:36;;;;;;;3.00;1.50;;;5.40;99.90;;;;;;5035167;28;20038;-88
2022/04/08 09:21:14;;;;;;;3.60;1.20;;;5.30;99.90;;;;;;5034633;28;20040;-89
2022/04/08 09:24:08;;;;;;;3.80;1.30;;;5.30;99.90;;;;;;5035307;28;20040;-89
2022/04/08 09:29:21;;;;;;;5.43;1.30;;;5.30;99.90;;;;;;5035690;28;20520;-87
2022/04/08 09:31:58;;;;;;;3.42;1.35;;;5.20;99.90;;;;;;5017502;28;20025;-87
2022/04/08 09:34:26;;;;;;;2.60;1.17;;;5.10;99.90;;;;;;5017714;28;20582;-87
2022/04/08 09:37:01;;;;;;;3.60;1.33;;;5.10;99.90;;;;;;5034387;28;20057;-88
2022/04/08 09:39:26;;;;;;;1.90;1.27;;;5.10;99.90;;;;;;5027326;28;20029;-89
2022/04/08 09:42:03;;;;;;;6.07;1.20;;;5.10;99.90;;;;;;5026554;28;20025;-89
2022/04/08 09:44:40;;;;;;;4.65;1.98;;;5.10;99.90;;;;;;5022887;28;20041;-90
2022/04/08 09:47:11;;;;;;;4.32;1.20;;;5.10;99.90;;;;;;5040897;28;20049;-90
2022/04/08 09:49:43;;;;;;;3.13;1.20;;;5.20;99.90;;;;;;5022494;28;20026;-89
2022/04/08 09:52:12;;;;;;;2.30;1.38;;;5.20;99.90;;;;;;5025568;28;20026;-88
2022/04/08 09:54:43;;;;;;;3.05;1.23;;;5.10;99.90;;;;;;5037733;28;20053;-89
2022/04/08 09:57:17;;;;;;;4.55;1.30;;;5.10;99.90;;;;;;5034635;28;20029;-89
2022/04/08 09:59:49;;;;;;;1.80;1.20;;;5.20;99.90;;;;;;5034491;28;20477;-89
2022/04/08 10:02:17;;;;;;;3.60;1.35;;;5.20;99.90;;;;;;5016416;28;20029;-88
2022/04/08 10:04:45;;;;;;;1.58;1.05;;;5.20;99.90;;;;;;5034108;28;20432;-88
2022/04/08 10:07:16;;;;;;;4.07;1.38;;;5.30;99.90;;;;;;5017460;28;20473;-88
2022/04/08 10:10:05;;;;;;;1.30;1.20;;;5.30;99.90;;;;;;5016334;28;20083;-87
2022/04/08 10:16:15;;;;;;;3.13;1.55;;;5.40;99.90;;;;;;4953758;29;20087;-87
2022/04/08 10:18:45;;;;;;;1.80;0.95;;;5.30;99.90;;;;;;5034002;28;20079;-87
2022/04/08 10:21:11;;;;;;;3.03;0.98;;;5.30;99.90;;;;;;5016131;28;20032;-87
2022/04/08 10:24:09;;;;;;;2.30;1.02;;;5.30;99.90;;;;;;5032816;28;20036;-88
2022/04/08 10:27:09;;;;;;;0.88;0.85;;;5.30;99.90;;;;;;5050318;23;20049;-86
2022/04/08 10:29:40;;;;;;;1.38;0.95;;;5.20;99.90;;;;;;5031846;28;20068;-87
2022/04/08 10:32:15;;;;;;;;;;;5.30;99.90;;;;;;5016432;28;20032;-87
2022/04/08 10:34:41;;;;;;;1.13;1.00;;;5.30;99.90;;;;;;5015857;28;19909;-88
2022/04/08 10:37:33;;;;;;;1.65;0.80;;;5.40;99.90;;;;;;5016153;28;20107;-87
2022/04/08 10:40:09;;;;;;;1.58;1.00;;;5.50;99.90;;;;;;5012322;28;20520;-88
2022/04/08 10:42:35;;;;;;;0.73;0.60;;;5.50;99.90;;;;;;5033588;28;20176;-87
2022/04/08 10:45:13;;;;;;;0.60;0.60;;;5.40;99.90;;;;;;5032825;28;20057;-86
2022/04/08 10:47:52;;;;;;;1.05;0.70;;;5.40;99.90;;;;;;5033478;28;20172;-85
2022/04/08 10:50:30;;;;;;;0.90;0.70;;;5.40;99.90;;;;;;5033597;28;20013;-85
2022/04/08 10:53:06;;;;;;;1.95;0.90;;;5.40;99.90;;;;;;5032279;28;20338;-85
2022/04/08 10:55:32;;;;;;;0.65;0.60;;;5.40;99.90;;;;;;5015188;28;20025;-85
2022/04/08 10:58:01;;;;;;;0.63;0.63;;;5.40;99.90;;;;;;5033611;28;20024;-86
2022/04/08 11:00:37;;;;;;;1.10;0.60;;;5.40;99.90;;;;;;5026306;28;20465;-86
2022/04/08 11:03:04;;;;;;;1.13;0.70;;;5.40;99.90;;;;;;5015933;28;20083;-87
2022/04/08 11:05:38;;;;;;;0.82;0.60;;;5.50;99.90;;;;;;5033300;28;20021;-87
2022/04/08 11:08:05;;;;;;;0.50;0.50;;;5.50;99.90;;;;;;5032318;28;20036;-86
2022/04/08 11:10:31;;;;;;;1.33;0.70;;;5.50;99.90;;;;;;5030616;28;20018;-87
2022/04/08 11:12:57;;;;;;;0.63;0.60;;;5.40;99.90;;;;;;5016070;28;20033;-87
2022/04/08 11:15:24;;;;;;;0.80;0.80;;;5.40;99.90;;;;;;4995564;28;20030;-86
2022/04/08 11:17:52;;;;;;;3.00;0.60;;;5.40;99.90;;;;;;5030662;28;20056;-85
2022/04/08 11:20:19;;;;;;;1.10;0.60;;;5.10;99.90;;;;;;5033329;28;20025;-88
2022/04/08 11:22:49;;;;;;;0.57;0.57;;;5.00;99.90;;;;;;5014905;28;20079;-85
2022/04/08 11:25:28;;;;;;;1.00;0.60;;;5.00;99.90;;;;;;5015236;28;20053;-87
2022/04/08 11:28:01;;;;;;;1.30;0.60;;;5.00;99.90;;;;;;5033515;28;20389;-88
2022/04/08 11:30:30;;;;;;;0.68;0.40;;;5.10;99.90;;;;;;5032891;28;20042;-88
2022/04/08 11:32:56;;;;;;;1.02;0.60;;;5.00;99.90;;;;;;5015728;28;20050;-88
2022/04/08 11:35:22;;;;;;;0.57;0.57;;;5.10;99.90;;;;;;5036407;28;20017;-89
2022/04/08 11:37:48;;;;;;;0.50;0.50;;;5.10;99.90;;;;;;5036754;28;20382;-88
2022/04/08 11:40:23;;;;;;;0.95;0.60;;;5.10;99.90;;;;;;5019267;28;20029;-88
2022/04/08 11:43:17;;;;;;;1.08;0.57;;;5.10;99.90;;;;;;5019360;28;20552;-88
2022/04/08 12:32:24;;;;;;;0.40;0.40;;;5.10;99.90;;;;;;5036039;28;20049;-87
2022/04/08 12:34:50;;;;;;;0.50;0.50;;;5.10;99.90;;;;;;5019529;28;20021;-88
2022/04/08 12:37:27;;;;;;;0.50;0.50;;;5.10;99.90;;;;;;5038413;28;20116;-88
2022/04/08 12:40:02;;;;;;;0.88;0.60;;;5.10;99.90;;;;;;5036446;28;20123;-86
2022/04/08 12:42:27;;;;;;;1.15;0.60;;;5.10;99.90;;;;;;5037658;28;20040;-89
2022/04/08 13:41:02;;;;;;;2.50;0.70;;;4.80;99.90;;;;;;6056786;22;20012;-89
2022/04/08 13:53:36;;;;;;;0.85;0.70;;;4.80;99.90;;;;;;6083948;22;20035;-87
2022/04/08 14:09:49;;;;;;;3.13;0.80;;;4.50;99.90;;;;;;4955748;29;20042;-87
2022/04/08 14:12:21;;;;;;;0.70;0.70;;;4.50;99.90;;;;;;4937758;29;20073;-89
2022/04/08 14:14:50;;;;;;;0.70;0.70;;;4.50;99.90;;;;;;4937661;29;20118;-87
2022/04/08 14:17:29;;;;;;;0.70;0.70;;;4.50;99.90;;;;;;4938028;29;20027;-87
2022/04/08 14:19:57;;;;;;;1.08;0.90;;;4.60;99.90;;;;;;4993558;28;20033;-88
2022/04/08 14:22:30;;;;;;;1.05;0.70;;;4.70;99.90;;;;;;5034040;28;20024;-89
2022/04/08 14:24:56;;;;;;;1.30;0.60;;;4.70;99.90;;;;;;4996555;28;20036;-89
2022/04/08 14:27:36;;;;;;;0.60;0.60;;;4.70;99.90;;;;;;4996184;28;20025;-86
2022/04/08 14:30:02;;;;;;;1.17;1.10;;;4.80;99.90;;;;;;4996789;28;20041;-89
2022/04/08 14:32:28;;;;;;;1.13;1.02;;;4.70;99.90;;;;;;5026632;22;20025;-86
2022/04/08 14:34:54;;;;;;;0.80;0.80;;;4.60;99.90;;;;;;5034344;28;20124;-85
2022/04/08 14:37:20;;;;;;;1.92;0.77;;;4.60;99.90;;;;;;5016256;28;20061;-84
2022/04/08 14:39:45;;;;;;;0.60;0.60;;;4.70;99.90;;;;;;5034752;28;20021;-85
2022/04/08 14:42:11;;;;;;;1.17;0.80;;;4.80;99.90;;;;;;5034191;28;20434;-84
2022/04/08 14:44:37;;;;;;;1.85;0.90;;;5.00;99.90;;;;;;5016289;28;20033;-84
2022/04/08 14:47:03;;;;;;;0.75;0.75;;;5.00;99.90;;;;;;5012062;28;20490;-84
2022/04/08 14:49:28;;;;;;;1.63;0.98;;;5.10;99.90;;;;;;5013846;28;20026;-84
2022/04/08 14:51:56;;;;;;;0.68;0.50;;;5.20;99.90;;;;;;4996526;28;20076;-86
2022/04/08 14:54:22;;;;;;;1.20;0.80;;;5.20;99.90;;;;;;5033009;28;20022;-85
2022/04/08 14:56:50;;;;;;;0.60;0.60;;;5.20;99.90;;;;;;5034106;28;20118;-86
2022/04/08 14:59:22;;;;;;;0.70;0.70;;;5.20;99.90;;;;;;5016687;28;20038;-84
2022/04/08 15:01:47;;;;;;;0.77;0.70;;;5.20;99.90;;;;;;5034966;28;20112;-86
2022/04/08 15:04:16;;;;;;;0.60;0.60;;;5.20;99.90;;;;;;5034933;28;20025;-84
2022/04/08 15:06:55;;;;;;;;;;;;;;;;;;;;;
2022/04/08 15:09:21;;;;;;;0.70;0.70;;;5.10;99.90;;;;;;5021934;28;20040;-85
2022/04/08 15:11:53;;;;;;;1.02;0.88;;;4.90;99.90;;;;;;5017383;28;20787;-88
2022/04/08 15:14:45;;;;;;;1.13;1.00;;;4.90;99.90;;;;;;5017788;28;20037;-86
2022/04/08 15:17:11;;;;;;;1.20;1.10;;;4.80;99.90;;;;;;5018401;28;20024;-85
2022/04/08 15:19:52;;;;;;;;;;;;;;;;;;;;;
2022/04/08 15:22:18;;;;;;;1.38;1.17;;;4.80;99.90;;;;;;5025590;28;20044;-87
2022/04/08 15:25:05;;;;;;;0.95;0.95;;;4.80;99.90;;;;;;5042224;28;20045;-87
2022/04/08 15:27:42;;;;;;;2.10;1.58;;;4.90;99.90;;;;;;5018072;28;20064;-87
2022/04/08 15:30:12;;;;;;;2.85;1.85;;;4.90;99.90;;;;;;5026024;28;20374;-87
2022/04/08 15:32:55;;;;;;;3.65;1.95;;;4.90;99.90;;;;;;5032438;28;20049;-87
2022/04/08 15:35:24;;;;;;;1.80;1.70;;;4.90;99.90;;;;;;5015873;28;20070;-86
2022/04/08 15:37:49;;;;;;;2.03;1.52;;;4.90;99.90;;;;;;5010934;28;20474;-86
2022/04/08 15:40:37;;;;;;;3.72;2.00;;;4.90;99.90;;;;;;5018398;28;20052;-87
2022/04/08 15:43:12;;;;;;;3.25;2.20;;;4.90;99.90;;;;;;5017895;28;20057;-86
2022/04/08 15:45:46;;;;;;;3.08;1.92;;;4.90;99.90;;;;;;5035337;28;20464;-87
2022/04/08 15:48:12;;;;;;;4.00;2.15;;;4.90;99.90;;;;;;5017205;28;20168;-87
2022/04/08 15:57:03;;;;;;;2.63;2.13;;;5.10;99.90;;;;;;5035399;28;20063;-88